Time;durP1;ratioP1;P1;durP2;ratioP2;P2;SDS_P1;SDS_P2;PMS_P1;PMS_P2;Temp;Humidity;BMP_temperature;BMP_pressure;BME280_temperature;BME280_humidity;BME280_pressure;Samples;Min_cycle;Max_cycle;Signal;HPM_P1;HPM_P2
2023/09/18 00:01:26;;;;;;;;;;;;;;;23.12;100.00;97564.03;5023111;28;19941;-70
2023/09/18 00:03:53;;;;;;;;;;;;;;;23.10;100.00;97571.00;5024979;28;19936;-70
2023/09/18 00:06:19;;;;;;;;;;;;;;;23.07;100.00;97558.09;5023501;28;19925;-70
2023/09/18 00:08:46;;;;;;;;;;;;;;;23.05;100.00;97561.16;5020964;28;19925;-70
2023/09/18 00:11:12;;;;;;;;;;;;;;;23.04;100.00;97564.22;5020887;28;19961;-70
2023/09/18 00:13:38;;;;;;;;;;;;;;;23.01;100.00;97554.03;5024596;28;19961;-70
2023/09/18 00:16:05;;;;;;;;;;;;;;;23.01;100.00;97549.38;5026007;28;20353;-69
2023/09/18 00:18:32;;;;;;;;;;;;;;;23.02;100.00;97550.19;5021334;28;19941;-69
2023/09/18 00:20:59;;;;;;;;;;;;;;;23.05;100.00;97554.94;5020565;28;19928;-69
2023/09/18 00:23:25;;;;;;;;;;;;;;;22.96;100.00;97549.63;5022616;28;19956;-69
2023/09/18 00:25:52;;;;;;;;;;;;;;;22.92;100.00;97545.25;5024198;28;19929;-69
2023/09/18 00:28:18;;;;;;;;;;;;;;;22.87;100.00;97540.09;5023238;28;19925;-69
2023/09/18 00:30:48;;;;;;;;;;;;;;;22.90;100.00;97533.94;5021002;28;19930;-70
2023/09/18 00:33:15;;;;;;;;;;;;;;;22.86;100.00;97528.41;5021527;28;19933;-70
2023/09/18 00:35:45;;;;;;;;;;;;;;;22.89;100.00;97535.06;5024366;28;19952;-70
2023/09/18 00:38:12;;;;;;;;;;;;;;;22.84;100.00;97521.75;5023885;28;19929;-69
2023/09/18 00:40:38;;;;;;;;;;;;;;;22.77;100.00;97519.63;5020249;28;19933;-69
2023/09/18 00:43:05;;;;;;;;;;;;;;;22.68;100.00;97515.50;5020455;28;19925;-69
2023/09/18 00:45:31;;;;;;;;;;;;;;;22.56;100.00;97513.63;5024729;28;19948;-69
2023/09/18 00:47:58;;;;;;;;;;;;;;;22.60;100.00;97515.28;5023524;28;19972;-69
2023/09/18 00:50:24;;;;;;;;;;;;;;;22.70;100.00;97510.47;5020712;28;19929;-69
2023/09/18 00:52:52;;;;;;;;;;;;;;;22.77;100.00;97519.63;5019952;28;19953;-69
2023/09/18 00:55:19;;;;;;;;;;;;;;;22.80;100.00;97508.03;5020497;28;19949;-69
2023/09/18 00:57:46;;;;;;;;;;;;;;;22.80;100.00;97504.50;5023254;28;19953;-69
2023/09/18 01:00:17;;;;;;;;;;;;;;;22.75;100.00;97493.88;5022936;28;19930;-69
2023/09/18 01:02:44;;;;;;;;;;;;;;;22.79;100.00;97489.31;5019858;28;19941;-69
2023/09/18 01:05:11;;;;;;;;;;;;;;;22.52;100.00;97494.47;5019845;28;19926;-68
2023/09/18 01:07:37;;;;;;;;;;;;;;;22.21;100.00;97488.19;5011578;28;19925;-68
2023/09/18 01:10:06;;;;;;;;;;;;;;;22.30;100.00;97494.28;5011557;28;20012;-69
2023/09/18 01:12:35;;;;;;;;;;;;;;;22.43;100.00;97484.91;5011406;28;19933;-69
2023/09/18 01:15:04;;;;;;;;;;;;;;;22.57;100.00;97491.47;5012141;28;19930;-69
2023/09/18 01:17:31;;;;;;;;;;;;;;;22.56;100.00;97492.63;5023495;28;19926;-69
2023/09/18 01:20:00;;;;;;;;;;;;;;;22.65;100.00;97495.22;5023481;28;19948;-69
2023/09/18 01:22:31;;;;;;;;;;;;;;;22.68;100.00;97493.72;5021523;28;19925;-69
2023/09/18 01:24:57;;;;;;;;;;;;;;;22.60;100.00;97488.06;5020182;28;19926;-69
2023/09/18 01:27:24;;;;;;;;;;;;;;;22.47;100.00;97483.03;5021645;28;19925;-69
2023/09/18 01:29:50;;;;;;;;;;;;;;;22.47;100.00;97488.47;5023751;28;19926;-69
2023/09/18 01:32:17;;;;;;;;;;;;;;;22.23;100.00;97484.00;5022489;28;19932;-69
2023/09/18 01:34:46;;;;;;;;;;;;;;;21.94;100.00;97479.72;5020286;28;19997;-69
2023/09/18 01:37:13;;;;;;;;;;;;;;;21.86;100.00;97475.19;5020144;28;20653;-69
2023/09/18 01:39:41;;;;;;;;;;;;;;;21.86;100.00;97477.13;5022683;28;19961;-69
2023/09/18 01:42:10;;;;;;;;;;;;;;;21.77;100.00;97474.56;5022648;28;19957;-69
2023/09/18 01:44:38;;;;;;;;;;;;;;;21.51;100.00;97471.47;5019119;28;19993;-69
2023/09/18 01:47:05;;;;;;;;;;;;;;;21.20;100.00;97458.53;5021040;28;19922;-69
2023/09/18 01:49:33;;;;;;;;;;;;;;;20.97;100.00;97454.69;5021868;28;19926;-69
2023/09/18 01:51:59;;;;;;;;;;;;;;;21.03;100.00;97456.03;5022422;28;19933;-69
2023/09/18 01:54:26;;;;;;;;;;;;;;;20.98;100.00;97459.00;5020570;28;19925;-69
2023/09/18 01:56:54;;;;;;;;;;;;;;;20.79;100.00;97461.50;5019011;28;19953;-69
2023/09/18 01:59:21;;;;;;;;;;;;;;;20.73;100.00;97452.00;5020127;28;19922;-69
2023/09/18 02:01:48;;;;;;;;;;;;;;;20.48;100.00;97450.41;5026377;28;19926;-69
2023/09/18 02:04:14;;;;;;;;;;;;;;;20.38;100.00;97452.44;5026375;28;19925;-69
2023/09/18 02:06:40;;;;;;;;;;;;;;;20.47;100.00;97446.91;5022831;28;19922;-69
2023/09/18 02:09:08;;;;;;;;;;;;;;;20.42;100.00;97439.75;5022843;28;19933;-69
2023/09/18 02:11:35;;;;;;;;;;;;;;;20.46;100.00;97437.97;5026063;28;19925;-69
2023/09/18 02:14:05;;;;;;;;;;;;;;;20.72;100.00;97445.78;5026495;28;19929;-69
2023/09/18 02:16:31;;;;;;;;;;;;;;;21.15;100.00;97450.63;5025791;28;19929;-69
2023/09/18 02:18:58;;;;;;;;;;;;;;;21.46;100.00;97453.50;5022907;28;19926;-69
2023/09/18 02:21:24;;;;;;;;;;;;;;;21.64;100.00;97445.84;5024364;28;20409;-69
2023/09/18 02:23:51;;;;;;;;;;;;;;;21.56;100.00;97435.91;5026080;28;19953;-69
2023/09/18 02:26:17;;;;;;;;;;;;;;;21.39;100.00;97434.25;5025247;28;20033;-69
2023/09/18 02:28:44;;;;;;;;;;;;;;;21.32;100.00;97444.16;5022633;28;19926;-69
2023/09/18 02:31:12;;;;;;;;;;;;;;;21.16;100.00;97432.41;5022621;28;19957;-69
2023/09/18 02:33:38;;;;;;;;;;;;;;;21.29;100.00;97437.44;5022567;28;20451;-69
2023/09/18 02:36:05;;;;;;;;;;;;;;;21.34;100.00;97426.38;5022580;28;19937;-69
2023/09/18 02:38:31;;;;;;;;;;;;;;;21.40;100.00;97430.41;5024950;28;19930;-69
2023/09/18 02:40:58;;;;;;;;;;;;;;;21.26;100.00;97424.56;5025701;28;19926;-69
2023/09/18 02:43:24;;;;;;;;;;;;;;;21.28;100.00;97422.31;5024098;28;19926;-69
2023/09/18 02:45:51;;;;;;;;;;;;;;;21.52;100.00;97424.16;5027465;28;19989;-69
2023/09/18 02:48:19;;;;;;;;;;;;;;;21.52;100.00;97430.38;5007640;28;19926;-69
2023/09/18 02:50:45;;;;;;;;;;;;;;;21.50;100.00;97421.78;5022241;28;19960;-69
2023/09/18 02:53:17;;;;;;;;;;;;;;;21.68;100.00;97432.34;5022030;28;19932;-69
2023/09/18 02:55:44;;;;;;;;;;;;;;;21.84;100.00;97433.19;5014047;28;19985;-70
2023/09/18 02:58:10;;;;;;;;;;;;;;;21.86;100.00;97434.41;5014123;28;19926;-69
2023/09/18 03:00:42;;;;;;;;;;;;;;;21.80;100.00;97426.84;5015230;28;19921;-69
2023/09/18 03:03:08;;;;;;;;;;;;;;;21.40;100.00;97427.69;5014055;28;20016;-69
2023/09/18 03:05:36;;;;;;;;;;;;;;;21.20;100.00;97423.22;5013510;28;19953;-69
2023/09/18 03:08:04;;;;;;;;;;;;;;;21.20;100.00;97417.03;5013772;28;19926;-69
2023/09/18 03:10:33;;;;;;;;;;;;;;;21.10;100.00;97418.28;5013663;28;19934;-69
2023/09/18 03:12:59;;;;;;;;;;;;;;;21.23;100.00;97417.09;4995415;28;19926;-69
2023/09/18 03:15:26;;;;;;;;;;;;;;;21.32;100.00;97423.19;5017167;28;19992;-69
2023/09/18 03:17:52;;;;;;;;;;;;;;;21.34;100.00;97420.94;5025157;28;19926;-70
2023/09/18 03:20:18;;;;;;;;;;;;;;;21.36;100.00;97418.66;5024191;28;19926;-69
2023/09/18 03:22:46;;;;;;;;;;;;;;;21.41;100.00;97417.63;5021492;28;19932;-69
2023/09/18 03:25:12;;;;;;;;;;;;;;;21.62;100.00;97412.00;5021593;28;19949;-69
2023/09/18 03:27:39;;;;;;;;;;;;;;;21.85;100.00;97419.25;5024943;28;19925;-69
2023/09/18 03:30:06;;;;;;;;;;;;;;;21.85;100.00;97421.94;5025038;28;19961;-69
2023/09/18 03:32:33;;;;;;;;;;;;;;;21.74;100.00;97417.38;5022015;28;19976;-69
2023/09/18 03:34:59;;;;;;;;;;;;;;;21.80;100.00;97408.63;5021319;28;20031;-69
2023/09/18 03:37:25;;;;;;;;;;;;;;;21.78;100.00;97404.69;5023177;28;19925;-69
2023/09/18 03:39:53;;;;;;;;;;;;;;;21.50;100.00;97394.63;5024503;28;19933;-69
2023/09/18 03:42:19;;;;;;;;;;;;;;;21.40;100.00;97392.38;5023609;28;19964;-68
2023/09/18 03:44:46;;;;;;;;;;;;;;;21.21;100.00;97386.00;5021290;28;20029;-69
2023/09/18 03:47:12;;;;;;;;;;;;;;;21.36;100.00;97380.63;5023051;28;19933;-68
2023/09/18 03:49:38;;;;;;;;;;;;;;;21.63;100.00;97380.97;5024591;28;19925;-69
2023/09/18 03:52:05;;;;;;;;;;;;;;;21.78;100.00;97364.72;5024644;28;19929;-69
2023/09/18 03:54:31;;;;;;;;;;;;;;;21.83;100.00;97374.50;5022100;28;19960;-69
2023/09/18 03:56:59;;;;;;;;;;;;;;;21.66;100.00;97370.22;5021278;28;19968;-69
2023/09/18 03:59:25;;;;;;;;;;;;;;;21.56;100.00;97369.91;5022807;28;19926;-69
2023/09/18 04:01:52;;;;;;;;;;;;;;;21.50;100.00;97367.44;5024335;28;19926;-69
2023/09/18 04:04:18;;;;;;;;;;;;;;;21.48;100.00;97369.72;5023576;28;19953;-69
2023/09/18 04:06:46;;;;;;;;;;;;;;;21.58;100.00;97383.94;5020592;28;19930;-69
2023/09/18 04:09:12;;;;;;;;;;;;;;;21.33;100.00;97364.22;5020869;28;19925;-69
2023/09/18 04:11:38;;;;;;;;;;;;;;;21.04;100.00;97365.34;5020921;28;19965;-69
2023/09/18 04:14:06;;;;;;;;;;;;;;;21.06;100.00;97346.75;5019713;28;19937;-69
2023/09/18 04:16:35;;;;;;;;;;;;;;;21.01;100.00;97333.44;5028837;28;19936;-69
2023/09/18 04:19:02;;;;;;;;;;;;;;;20.93;100.00;97331.63;5020858;28;19940;-69
2023/09/18 04:21:29;;;;;;;;;;;;;;;20.94;100.00;97330.50;5023283;28;19933;-69
2023/09/18 04:23:57;;;;;;;;;;;;;;;21.20;100.00;97325.47;5024481;28;19929;-69
2023/09/18 04:26:24;;;;;;;;;;;;;;;21.51;100.00;97347.28;5022585;28;19948;-69
2023/09/18 04:28:50;;;;;;;;;;;;;;;21.64;100.00;97350.72;5020512;28;19930;-70
2023/09/18 04:31:18;;;;;;;;;;;;;;;21.64;100.00;97342.56;5020818;28;19933;-69
2023/09/18 04:33:45;;;;;;;;;;;;;;;21.61;100.00;97335.13;5023948;28;19967;-70
2023/09/18 04:36:11;;;;;;;;;;;;;;;21.26;100.00;97339.59;5023927;28;20021;-70
2023/09/18 04:38:38;;;;;;;;;;;;;;;20.91;100.00;97323.84;5012316;28;20492;-70
2023/09/18 04:41:04;;;;;;;;;;;;;;;20.70;100.00;97319.72;5012197;28;19993;-70
2023/09/18 04:43:30;;;;;;;;;;;;;;;20.67;100.00;97318.50;5012132;28;19953;-70
2023/09/18 04:45:57;;;;;;;;;;;;;;;20.42;100.00;97328.56;5019987;28;19926;-70
2023/09/18 04:48:25;;;;;;;;;;;;;;;20.34;100.00;97329.47;5021821;28;19929;-70
2023/09/18 04:50:51;;;;;;;;;;;;;;;20.53;100.00;97334.31;5019898;28;20274;-68
2023/09/18 04:53:17;;;;;;;;;;;;;;;20.38;100.00;97332.31;5020541;28;19933;-68
2023/09/18 04:55:44;;;;;;;;;;;;;;;20.21;100.00;97337.94;5023151;28;19922;-68
2023/09/18 04:58:11;;;;;;;;;;;;;;;20.12;100.00;97343.44;5023136;28;19926;-69
2023/09/18 05:00:37;;;;;;;;;;;;;;;20.23;100.00;97338.38;5019660;28;19949;-69
2023/09/18 05:03:04;;;;;;;;;;;;;;;20.25;100.00;97322.56;5019559;28;19937;-69
2023/09/18 05:05:32;;;;;;;;;;;;;;;20.01;100.00;97317.94;5021930;28;19922;-69
2023/09/18 05:07:59;;;;;;;;;;;;;;;19.90;100.00;97317.56;5023147;28;19925;-69
2023/09/18 05:10:25;;;;;;;;;;;;;;;19.79;100.00;97305.59;5021444;28;19933;-69
2023/09/18 05:12:58;;;;;;;;;;;;;;;19.94;100.00;97314.97;5019938;28;19933;-69
2023/09/18 05:15:26;;;;;;;;;;;;;;;19.89;100.00;97312.50;5023564;28;19926;-69
2023/09/18 05:17:56;;;;;;;;;;;;;;;20.03;100.00;97314.88;5023804;28;19921;-69
2023/09/18 05:20:23;;;;;;;;;;;;;;;19.97;100.00;97314.31;5022056;28;19936;-69
2023/09/18 05:22:53;;;;;;;;;;;;;;;19.81;100.00;97308.75;5019419;28;19925;-69
2023/09/18 05:25:21;;;;;;;;;;;;;;;19.76;100.00;97308.19;5021086;28;19926;-69
2023/09/18 05:27:48;;;;;;;;;;;;;;;19.99;100.00;97320.19;5023105;28;19936;-69
2023/09/18 05:30:15;;;;;;;;;;;;;;;20.13;100.00;97317.13;5022480;28;19925;-69
2023/09/18 05:32:42;;;;;;;;;;;;;;;20.08;100.00;97323.59;5019439;28;19965;-70
2023/09/18 05:35:12;;;;;;;;;;;;;;;20.23;100.00;97322.91;5018996;28;19997;-70
2023/09/18 05:37:38;;;;;;;;;;;;;;;20.44;100.00;97325.53;5019304;28;19936;-69
2023/09/18 05:40:09;;;;;;;;;;;;;;;20.42;100.00;97331.28;5019555;28;19922;-69
2023/09/18 05:42:35;;;;;;;;;;;;;;;20.58;100.00;97325.19;5022590;28;20032;-70
2023/09/18 05:45:02;;;;;;;;;;;;;;;20.59;100.00;97315.88;5023247;28;19925;-69
2023/09/18 05:47:29;;;;;;;;;;;;;;;20.54;100.00;97297.13;5022752;28;19926;-70
2023/09/18 05:49:56;;;;;;;;;;;;;;;20.63;100.00;97298.59;5022797;28;19953;-68
2023/09/18 05:52:23;;;;;;;;;;;;;;;20.64;100.00;97307.53;5021088;28;19994;-70
2023/09/18 05:54:49;;;;;;;;;;;;;;;20.55;100.00;97306.88;5002009;28;19949;-69
2023/09/18 05:57:18;;;;;;;;;;;;;;;20.75;100.00;97306.69;5019984;28;19989;-70
2023/09/18 05:59:45;;;;;;;;;;;;;;;20.86;100.00;97305.06;5023017;28;19926;-70
2023/09/18 06:02:11;;;;;;;;;;;;;;;20.72;100.00;97317.44;5022546;28;19938;-69
2023/09/18 06:04:37;;;;;;;;;;;;;;;20.57;100.00;97318.16;5019022;28;19961;-69
2023/09/18 06:07:04;;;;;;;;;;;;;;;20.58;100.00;97317.03;5019228;28;19976;-70
2023/09/18 06:09:30;;;;;;;;;;;;;;;20.39;100.00;97310.25;5021478;28;20444;-69
2023/09/18 06:11:58;;;;;;;;;;;;;;;20.22;100.00;97307.75;5023401;28;19932;-70
2023/09/18 06:14:26;;;;;;;;;;;;;;;20.19;100.00;97307.66;5021237;28;20420;-71
2023/09/18 06:16:52;;;;;;;;;;;;;;;20.20;100.00;97310.03;5003862;28;19953;-69
2023/09/18 06:19:18;;;;;;;;;;;;;;;20.24;100.00;97310.16;5019980;28;19953;-69
2023/09/18 06:21:45;;;;;;;;;;;;;;;20.48;100.00;97303.94;5023040;28;19952;-69
2023/09/18 06:24:12;;;;;;;;;;;;;;;20.71;100.00;97313.94;5022574;28;19980;-69
2023/09/18 06:26:38;;;;;;;;;;;;;;;20.77;100.00;97309.06;5011114;28;19930;-69
2023/09/18 06:29:05;;;;;;;;;;;;;;;20.68;100.00;97305.69;5011128;28;19974;-69
2023/09/18 06:31:33;;;;;;;;;;;;;;;20.70;100.00;97301.53;5010753;28;19984;-69
2023/09/18 06:33:59;;;;;;;;;;;;;;;20.75;100.00;97304.00;5010687;28;19922;-69
2023/09/18 06:36:25;;;;;;;;;;;;;;;20.81;100.00;97286.34;5010736;28;19925;-69
2023/09/18 06:38:53;;;;;;;;;;;;;;;20.75;100.00;97286.91;5011349;28;20044;-69
2023/09/18 06:41:19;;;;;;;;;;;;;;;20.87;100.00;97295.81;5010904;28;19926;-70
2023/09/18 06:43:45;;;;;;;;;;;;;;;21.20;100.00;97292.88;5010662;28;19922;-70
2023/09/18 06:46:12;;;;;;;;;;;;;;;21.53;100.00;97303.47;5020753;28;19925;-69
2023/09/18 06:48:39;;;;;;;;;;;;;;;21.71;100.00;97296.56;5013144;28;19937;-69
2023/09/18 06:51:06;;;;;;;;;;;;;;;21.95;100.00;97306.50;5014260;28;19953;-69
2023/09/18 06:53:32;;;;;;;;;;;;;;;22.16;100.00;97312.44;5014310;28;19925;-69
2023/09/18 06:55:59;;;;;;;;;;;;;;;22.42;100.00;97322.78;5014246;28;19929;-69
2023/09/18 06:58:25;;;;;;;;;;;;;;;21.82;100.00;97324.00;5014095;28;20117;-69
2023/09/18 07:00:52;;;;;;;;;;;;;;;21.55;100.00;97341.94;5014139;28;20006;-70
2023/09/18 07:03:18;;;;;;;;;;;;;;;21.97;100.00;97334.16;5014100;28;19930;-70
2023/09/18 07:05:46;;;;;;;;;;;;;;;21.86;100.00;97347.44;5013818;28;20637;-70
2023/09/18 07:08:12;;;;;;;;;;;;;;;21.43;100.00;97340.09;5014301;28;19927;-69
2023/09/18 07:10:39;;;;;;;;;;;;;;;21.34;100.00;97341.38;5022157;28;20105;-70
2023/09/18 07:13:06;;;;;;;;;;;;;;;21.57;100.00;97344.31;5022590;28;20131;-70
2023/09/18 07:15:32;;;;;;;;;;;;;;;21.52;100.00;97357.03;5026760;28;19925;-68
2023/09/18 07:17:59;;;;;;;;;;;;;;;21.63;100.00;97348.38;5025200;28;19932;-69
2023/09/18 07:20:25;;;;;;;;;;;;;;;21.87;100.00;97356.38;5023407;28;19931;-68
2023/09/18 07:22:53;;;;;;;;;;;;;;;22.01;100.00;97371.16;5021797;28;19933;-69
2023/09/18 07:25:19;;;;;;;;;;;;;;;22.08;100.00;97362.38;5022702;28;19988;-69
2023/09/18 07:27:46;;;;;;;;;;;;;;;22.09;100.00;97347.66;5025142;28;19925;-69
2023/09/18 07:30:12;;;;;;;;;;;;;;;22.13;100.00;97353.19;5025109;28;19964;-69
2023/09/18 07:32:40;;;;;;;;;;;;;;;22.15;100.00;97362.56;5021664;28;19925;-69
2023/09/18 07:35:07;;;;;;;;;;;;;;;22.18;100.00;97359.16;5021549;28;19926;-69
2023/09/18 07:37:34;;;;;;;;;;;;;;;22.18;100.00;97359.16;5024401;28;19929;-69
2023/09/18 07:40:02;;;;;;;;;;;;;;;22.17;100.00;97351.31;5024905;28;19926;-69
2023/09/18 07:42:28;;;;;;;;;;;;;;;21.69;100.00;97350.50;5022488;28;19925;-69
2023/09/18 07:44:55;;;;;;;;;;;;;;;21.58;100.00;97343.16;5020149;28;20531;-68
2023/09/18 07:47:22;;;;;;;;;;;;;;;21.56;100.00;97359.03;5024368;28;19933;-68
2023/09/18 07:49:48;;;;;;;;;;;;;;;21.75;100.00;97362.69;5024594;28;20649;-68
2023/09/18 07:52:15;;;;;;;;;;;;;;;21.58;100.00;97362.19;5024505;28;19949;-68
2023/09/18 07:54:42;;;;;;;;;;;;;;;21.54;100.00;97352.03;5004206;28;19925;-68
2023/09/18 07:57:09;;;;;;;;;;;;;;;21.41;100.00;97347.00;5021327;28;19925;-69
2023/09/18 07:59:36;;;;;;;;;;;;;;;21.44;100.00;97352.53;5024436;28;19948;-69
2023/09/18 08:02:02;;;;;;;;;;;;;;;21.31;100.00;97352.94;5024655;28;19993;-69
2023/09/18 08:04:31;;;;;;;;;;;;;;;21.35;100.00;97367.41;5022093;28;19990;-69
2023/09/18 08:06:58;;;;;;;;;;;;;;;21.35;100.00;97370.13;5020892;28;19932;-69
2023/09/18 08:09:24;;;;;;;;;;;;;;;21.36;100.00;97372.47;5022519;28;19972;-69
2023/09/18 08:11:55;;;;;;;;;;;;;;;21.35;100.00;97378.28;5024946;28;19925;-69
2023/09/18 08:14:22;;;;;;;;;;;;;;;21.62;100.00;97384.81;5023417;28;19952;-69
2023/09/18 08:16:49;;;;;;;;;;;;;;;21.57;100.00;97390.53;5023073;28;19940;-70
2023/09/18 08:19:16;;;;;;;;;;;;;;;21.56;100.00;97387.00;5020779;28;19936;-69
2023/09/18 08:21:43;;;;;;;;;;;;;;;21.80;100.00;97386.88;5023815;28;19933;-69
2023/09/18 08:24:09;;;;;;;;;;;;;;;21.92;100.00;97386.84;5023864;28;19929;-70
2023/09/18 08:26:36;;;;;;;;;;;;;;;21.94;100.00;97384.56;5020950;28;19930;-70
2023/09/18 08:29:03;;;;;;;;;;;;;;;22.04;100.00;97377.81;5020625;28;19926;-70
2023/09/18 08:31:31;;;;;;;;;;;;;;;22.05;100.00;97379.41;5022875;28;19953;-70
2023/09/18 08:33:58;;;;;;;;;;;;;;;22.05;100.00;97371.25;5006744;28;19972;-70
2023/09/18 08:36:25;;;;;;;;;;;;;;;22.05;100.00;97366.59;5022365;28;19989;-70
2023/09/18 08:38:51;;;;;;;;;;;;;;;22.05;100.00;97352.22;5020184;28;20286;-70
2023/09/18 08:41:20;;;;;;;;;;;;;;;22.13;100.00;97353.19;5020825;28;19922;-69
2023/09/18 08:43:48;;;;;;;;;;;;;;;22.20;100.00;97353.34;5023630;28;19984;-69
2023/09/18 08:46:15;;;;;;;;;;;;;;;22.17;100.00;97340.44;5025294;28;19925;-69
2023/09/18 08:48:43;;;;;;;;;;;;;;;22.18;100.00;97337.38;5020207;28;19932;-70
2023/09/18 08:51:11;;;;;;;;;;;;;;;22.21;100.00;97336.69;5020076;28;19926;-69
2023/09/18 08:53:37;;;;;;;;;;;;;;;22.26;100.00;97344.56;5023486;28;19925;-69
2023/09/18 08:56:04;;;;;;;;;;;;;;;22.39;100.00;97347.97;5023866;28;19925;-69
2023/09/18 08:58:32;;;;;;;;;;;;;;;22.47;100.00;97347.78;5021124;28;20687;-69
2023/09/18 09:01:00;;;;;;;;;;;;;;;22.50;100.00;97357.16;5019964;28;19932;-69
2023/09/18 09:03:27;;;;;;;;;;;;;;;22.65;100.00;97347.41;5021634;28;19933;-69
2023/09/18 09:05:55;;;;;;;;;;;;;;;22.68;100.00;97344.00;5023084;28;19957;-69
2023/09/18 09:08:21;;;;;;;;;;;;;;;22.68;100.00;97346.75;5021970;28;19933;-69
2023/09/18 09:10:48;;;;;;;;;;;;;;;22.67;100.00;97348.66;5020753;28;19932;-69
2023/09/18 09:13:14;;;;;;;;;;;;;;;22.73;100.00;97349.16;5023382;28;19926;-68
2023/09/18 09:15:45;;;;;;;;;;;;;;;22.78;100.00;97354.31;5028947;28;19925;-68
2023/09/18 09:18:12;;;;;;;;;;;;;;;22.80;100.00;97358.28;5026585;28;19989;-70
2023/09/18 09:20:39;;;;;;;;;;;;;;;22.82;100.00;97357.94;5015374;28;19949;-70
2023/09/18 09:23:10;;;;;;;;;;;;;;;22.82;100.00;97350.56;5008987;28;19929;-70
2023/09/18 09:25:37;;;;;;;;;;;;;;;22.92;100.00;97360.91;5024818;28;19953;-70
2023/09/18 09:28:04;;;;;;;;;;;;;;;23.02;100.00;97359.56;5022985;28;19952;-69
2023/09/18 09:30:31;;;;;;;;;;;;;;;23.19;100.00;97358.31;5020641;28;19976;-69
2023/09/18 09:33:02;;;;;;;;;;;;;;;23.35;100.00;97343.50;5019160;28;20319;-69
2023/09/18 09:35:29;;;;;;;;;;;;;;;23.56;100.00;97335.75;5021763;28;19933;-68
2023/09/18 09:37:57;;;;;;;;;;;;;;;23.84;100.00;97334.69;5022739;28;19929;-69
2023/09/18 09:40:26;;;;;;;;;;;;;;;23.98;100.00;97324.81;5021356;28;19993;-69
2023/09/18 09:42:53;;;;;;;;;;;;;;;24.06;100.00;97325.72;5019662;28;19953;-70
2023/09/18 09:45:20;;;;;;;;;;;;;;;24.17;100.00;97319.31;5022313;28;19976;-70
2023/09/18 09:47:47;;;;;;;;;;;;;;;24.22;100.00;97325.63;5022314;28;19976;-70
2023/09/18 09:50:15;;;;;;;;;;;;;;;24.19;100.00;97321.69;5021775;28;19971;-70
2023/09/18 09:52:43;;;;;;;;;;;;;;;24.15;100.00;97312.66;5019661;28;19968;-70
2023/09/18 09:55:19;;;;;;;;;;;;;;;24.28;100.00;97305.06;5019241;28;20129;-70
2023/09/18 09:57:51;;;;;;;;;;;;;;;24.28;100.00;97308.56;5010955;28;19942;-68
2023/09/18 10:00:26;;;;;;;;;;;;;;;24.96;100.00;97299.41;5010984;28;19953;-69
2023/09/18 10:02:56;;;;;;;;;;;;;;;25.05;100.00;97299.91;5010740;28;19926;-69
2023/09/18 10:05:25;;;;;;;;;;;;;;;24.85;100.00;97303.97;5010660;28;19934;-69
2023/09/18 10:07:52;;;;;;;;;;;;;;;24.90;100.00;97309.88;5011287;28;19926;-70
2023/09/18 10:10:18;;;;;;;;;;;;;;;25.22;100.00;97315.75;5011072;28;19930;-70
2023/09/18 10:12:46;;;;;;;;;;;;;;;25.42;100.00;97306.19;5010699;28;19922;-70
2023/09/18 10:15:14;;;;;;;;;;;;;;;25.40;100.00;97294.88;5013009;28;19930;-70
2023/09/18 10:17:44;;;;;;;;;;;;;;;25.52;100.00;97291.91;5010977;28;19930;-70
2023/09/18 10:20:19;;;;;;;;;;;;;;;25.43;100.00;97298.78;5011331;28;19930;-70
2023/09/18 10:22:46;;;;;;;;;;;;;;;25.45;100.00;97297.25;5013725;28;19925;-70
2023/09/18 10:25:17;;;;;;;;;;;;;;;25.41;100.00;97290.94;5015090;28;19933;-69
2023/09/18 10:27:45;;;;;;;;;;;;;;;25.39;100.00;97298.75;5014830;28;19976;-69
2023/09/18 10:30:13;;;;;;;;;;;;;;;25.38;100.00;97302.63;5022587;28;19930;-69
2023/09/18 10:32:42;;;;;;;;;;;;;;;25.38;100.00;97307.34;5022463;28;19926;-70
2023/09/18 10:35:09;;;;;;;;;;;;;;;25.60;100.00;97304.47;5022535;28;19945;-70
2023/09/18 10:37:37;;;;;;;;;;;;;;;25.52;100.00;97311.03;5025383;28;19925;-70
2023/09/18 10:40:05;;;;;;;;;;;;;;;25.45;100.00;97313.66;5025781;28;20537;-70
2023/09/18 10:42:33;;;;;;;;;;;;;;;25.41;100.00;97315.56;5023130;28;19939;-70
2023/09/18 10:44:59;;;;;;;;;;;;;;;25.37;100.00;97314.75;5022488;28;20006;-70
2023/09/18 10:47:26;;;;;;;;;;;;;;;25.33;100.00;97311.19;5025700;28;19972;-71
2023/09/18 10:49:54;;;;;;;;;;;;;;;25.30;100.00;97306.47;5025924;28;19969;-70
2023/09/18 10:52:21;;;;;;;;;;;;;;;25.33;100.00;97310.38;5024424;28;20026;-70
2023/09/18 10:54:47;;;;;;;;;;;;;;;25.39;100.00;97297.97;5021941;28;19926;-70
2023/09/18 10:57:14;;;;;;;;;;;;;;;25.40;100.00;97303.06;5021954;28;19957;-69
2023/09/18 10:59:46;;;;;;;;;;;;;;;25.42;100.00;97308.16;5025350;28;19929;-69
2023/09/18 11:02:15;;;;;;;;;;;;;;;25.21;100.00;97308.69;5025468;28;19964;-69
2023/09/18 11:04:42;;;;;;;;;;;;;;;25.22;100.00;97302.84;5013885;28;19937;-69
2023/09/18 11:07:09;;;;;;;;;;;;;;;25.38;100.00;97302.63;5013598;28;19926;-69
2023/09/18 11:09:43;;;;;;;;;;;;;;;25.43;100.00;97296.84;5013799;28;19925;-69
2023/09/18 11:12:11;;;;;;;;;;;;;;;25.48;100.00;97309.38;5013670;28;19926;-69
2023/09/18 11:14:49;;;;;;;;;;;;;;;25.48;100.00;97310.19;5013752;28;19926;-70
2023/09/18 11:17:34;;;;;;;;;;;;;;;25.51;100.00;97319.59;5032117;28;19945;-70
2023/09/18 11:20:12;;;;;;;;;;;;;;;25.31;100.00;97318.97;5021780;28;19957;-70
2023/09/18 11:22:41;;;;;;;;;;;;;;;25.21;100.00;97325.88;5013631;28;19925;-70
2023/09/18 11:25:29;;;;;;;;;;;;;;;25.10;100.00;97324.16;5013563;28;19926;-70
2023/09/18 11:27:56;;;;;;;;;;;;;;;24.99;100.00;97334.19;5013578;28;19965;-69
2023/09/18 11:30:23;;;;;;;;;;;;;;;24.94;100.00;97329.06;5013298;28;19947;-69
2023/09/18 11:32:50;;;;;;;;;;;;;;;24.90;100.00;97325.47;5013021;28;20579;-69
2023/09/18 11:35:17;;;;;;;;;;;;;;;24.91;100.00;97329.78;5013033;28;19929;-69
2023/09/18 11:37:45;;;;;;;;;;;;;;;25.04;100.00;97342.03;5025574;28;19932;-69
2023/09/18 11:40:26;;;;;;;;;;;;;;;24.99;100.00;97339.66;5024919;28;19961;-69
2023/09/18 11:43:15;;;;;;;;;;;;;;;24.91;100.00;97333.31;5013150;28;19976;-69
2023/09/18 11:45:43;;;;;;;;;;;;;;;24.98;100.00;97324.41;5021024;28;19932;-69
2023/09/18 11:48:11;;;;;;;;;;;;;;;25.05;100.00;97328.03;5024665;28;19925;-69
2023/09/18 11:50:39;;;;;;;;;;;;;;;25.00;100.00;97339.28;5021283;28;20619;-69
2023/09/18 11:53:07;;;;;;;;;;;;;;;25.02;100.00;97330.72;5020880;28;19987;-69
2023/09/18 11:55:34;;;;;;;;;;;;;;;25.30;100.00;97333.78;5023878;28;19933;-69
2023/09/18 11:58:01;;;;;;;;;;;;;;;25.44;100.00;97328.47;5024905;28;19921;-69
2023/09/18 12:00:29;;;;;;;;;;;;;;;25.57;100.00;97326.31;5005466;28;19925;-69
2023/09/18 12:02:58;;;;;;;;;;;;;;;25.31;100.00;97318.19;5021104;28;19934;-69
2023/09/18 12:05:25;;;;;;;;;;;;;;;25.36;100.00;97320.56;5022238;28;19926;-69
2023/09/18 12:07:53;;;;;;;;;;;;;;;25.34;100.00;97326.44;5024402;28;19930;-69
2023/09/18 12:10:21;;;;;;;;;;;;;;;25.40;100.00;97327.66;5023132;28;19964;-69
2023/09/18 12:12:48;;;;;;;;;;;;;;;25.34;100.00;97336.56;5020735;28;19996;-69
2023/09/18 12:15:15;;;;;;;;;;;;;;;25.44;100.00;97333.19;5022975;28;19926;-69
2023/09/18 12:17:41;;;;;;;;;;;;;;;25.49;100.00;97336.38;5024101;28;19964;-69
2023/09/18 12:20:15;;;;;;;;;;;;;;;25.52;100.00;97335.66;5006802;28;19932;-69
2023/09/18 12:22:41;;;;;;;;;;;;;;;25.63;100.00;97336.53;5020648;28;19925;-69
2023/09/18 12:25:11;;;;;;;;;;;;;;;25.47;100.00;97332.44;5020576;28;19926;-69
2023/09/18 12:27:39;;;;;;;;;;;;;;;25.50;100.00;97342.66;5023732;28;19979;-69
2023/09/18 12:30:06;;;;;;;;;;;;;;;25.45;100.00;97338.25;5023734;28;19929;-69
2023/09/18 12:32:33;;;;;;;;;;;;;;;25.57;100.00;97346.22;5021125;28;19952;-69
2023/09/18 12:34:59;;;;;;;;;;;;;;;25.56;100.00;97346.63;5020339;28;20450;-69
2023/09/18 12:37:26;;;;;;;;;;;;;;;25.59;100.00;97368.50;5021891;28;19926;-69